< Cyclone 197802 1978 Season Cyclone 197804 >
Cyclone 197803 (TRUDY)
General InformationTrack Information on Google MapsDetailed Wind Information || ResourceGoogle EarthGE AnimationAtom FeedGeoJSON
Detalied Best Track (Time Zone = UTC)
Year Month Day Hour Lat. Long. Pressure (hPa) Wind (kt) Class Image Chart
1978 1 10 00 -10.5 129.0 1004 20 2 -- --
1978 1 10 03 -10.5 128.0 1004 25 2 -- --
1978 1 10 06 -10.5 127.0 1003 25 2 -- --
1978 1 10 09 -10.6 126.0 1003 25 2 -- --
1978 1 10 12 -10.7 125.0 1003 25 2 -- --
1978 1 10 15 -10.7 124.1 1003 25 2 -- --
1978 1 10 18 -10.8 123.3 1003 25 2 -- --
1978 1 10 21 -10.9 122.5 1003 25 2 -- --
1978 1 11 00 -11.2 121.7 1003 25 2 -- --
1978 1 11 03 -11.5 120.6 1002 25 2 -- --
1978 1 11 06 -11.8 119.5 1000 30 2 -- --
1978 1 11 09 -12.2 118.3 998 30 2 -- --
1978 1 11 12 -12.5 117.0 996 30 2 -- --
1978 1 11 15 -12.9 115.9 996 30 2 -- --
1978 1 11 18 -13.3 114.8 996 30 2 -- --
1978 1 11 21 -13.6 113.7 995 35 3 -- --
1978 1 12 00 -13.8 112.5 994 40 3 -- --
1978 1 12 03 -13.9 111.4 992 45 3 -- --
1978 1 12 06 -13.9 110.2 985 50 4 -- --
1978 1 12 12 -13.5 108.2 985 50 4 -- --
1978 1 12 15 -13.3 107.3 984 50 4 -- --
1978 1 12 18 -13.1 106.5 983 50 4 -- --
1978 1 12 21 -13.0 105.7 982 55 4 -- --
1978 1 13 00 -12.9 105.0 981 55 4 -- --
1978 1 13 03 -12.8 104.4 979 60 4 -- --
1978 1 13 06 -12.9 103.8 975 65 5 -- --
1978 1 13 09 -13.0 103.3 971 70 5 -- --
1978 1 13 12 -13.2 102.8 969 75 5 -- --
1978 1 13 15 -13.5 102.3 968 75 5 -- --
1978 1 13 18 -13.8 101.8 967 75 5 -- --
1978 1 13 21 -14.2 101.4 966 80 5 -- --
1978 1 14 00 -14.6 101.0 964 80 5 -- --
1978 1 14 03 -15.0 100.6 964 80 5 -- --
1978 1 14 06 -15.4 100.2 965 80 5 -- --
1978 1 14 09 -15.7 99.7 966 80 5 -- --
1978 1 14 12 -16.0 99.1 968 80 5 -- --
1978 1 14 15 -16.3 98.5 970 75 5 -- --
1978 1 14 18 -16.6 97.9 971 70 5 -- --
1978 1 14 21 -16.8 97.3 972 70 5 -- --
1978 1 15 00 -17.0 96.7 973 70 5 -- --
1978 1 15 03 -17.1 96.1 973 70 5 -- --
1978 1 15 06 -17.2 95.5 969 70 5 -- --
1978 1 15 09 -17.3 94.9 962 75 5 -- --
1978 1 15 12 -17.3 94.3 960 80 5 -- --
1978 1 15 15 -17.3 93.7 958 85 5 -- --
1978 1 15 18 -17.3 93.1 957 85 5 -- --
1978 1 15 21 -17.4 92.6 956 85 5 -- --
1978 1 16 00 -17.5 92.1 955 90 5 -- --
1978 1 16 03 -17.6 91.6 954 90 5 -- --
1978 1 16 06 -17.7 91.1 955 90 5 -- --
1978 1 16 09 -17.8 90.7 956 90 5 -- --
1978 1 16 12 -17.9 90.3 957 90 5 -- --
1978 1 16 15 -18.0 89.9 958 90 5 -- --
1978 1 16 18 -18.1 89.5 960 90 5 -- --
1978 1 16 21 -18.3 89.1 962 85 5 -- --
1978 1 17 00 -18.5 88.7 964 80 5 -- --
1978 1 17 03 -18.8 88.5 966 80 5 -- --
1978 1 17 06 -19.2 88.2 968 80 5 -- --
1978 1 17 09 -19.6 88.1 970 80 5 -- --
1978 1 17 12 -20.0 88.0 972 70 5 -- --
1978 1 17 15 -20.4 88.0 974 70 5 -- --
1978 1 17 18 -20.8 88.0 976 65 5 -- --
1978 1 17 21 -21.2 88.1 978 65 5 -- --
1978 1 18 00 -21.6 88.1 981 65 5 -- --
1978 1 18 03 -21.9 88.1 983 65 5 -- --
1978 1 18 06 -22.2 88.2 985 60 4 -- --
1978 1 18 09 -22.4 88.2 987 55 4 -- --
1978 1 18 12 -22.7 88.3 989 55 4 -- --
1978 1 18 15 -22.9 88.3 991 50 4 -- --
1978 1 18 18 -23.2 88.4 993 50 4 -- --
1978 1 18 21 -23.4 88.5 996 45 3 -- --
1978 1 19 00 -23.7 88.6 999 40 3 -- --
1978 1 19 03 -23.9 88.6 1001 30 2 -- --
1978 1 19 06 -24.1 88.7 1001 30 2 -- --
1978 1 19 09 -24.3 88.8 1001 30 2 -- --
1978 1 19 12 -24.5 88.9 1002 30 2 -- --
1978 1 19 15 -24.7 88.9 1003 30 2 -- --
1978 1 19 18 -24.9 89.0 1004 25 2 -- --
1978 1 19 21 -25.0 89.1 1005 25 2 -- --
1978 1 20 00 -25.1 89.2 1006 25 2 -- --
< Cyclone 197802 1978 Season Cyclone 197804 >

Help